createdAt,value
2018-04-15T00:00:13.576Z,98001.45
2018-04-15T00:02:39.943Z,97992.70
2018-04-15T00:05:06.196Z,97985.56
2018-04-15T00:07:32.457Z,97983.02
2018-04-15T00:09:58.771Z,97966.87
2018-04-15T00:12:25.015Z,97971.05
2018-04-15T00:14:51.267Z,97970.80
2018-04-15T00:17:17.559Z,97956.22
2018-04-15T00:19:44.475Z,97955.26
2018-04-15T00:22:10.743Z,97954.16
2018-04-15T00:24:37.020Z,97954.09
2018-04-15T00:27:03.478Z,97949.11
2018-04-15T00:29:29.732Z,97944.82
2018-04-15T00:31:56.012Z,97946.38
2018-04-15T00:34:22.271Z,97944.84
2018-04-15T00:36:48.514Z,97939.08
2018-04-15T00:39:14.812Z,97938.39
2018-04-15T00:41:41.104Z,97943.66
2018-04-15T00:44:07.353Z,97942.34
2018-04-15T00:46:34.020Z,97939.56
2018-04-15T00:49:00.276Z,97940.80
2018-04-15T00:51:26.542Z,97932.12
2018-04-15T00:54:05.012Z,97933.49
2018-04-15T00:56:31.270Z,97931.19
2018-04-15T00:58:57.751Z,97925.86
2018-04-15T01:01:24.075Z,97921.98
2018-04-15T01:03:50.352Z,97917.44
2018-04-15T01:06:16.613Z,97915.27
2018-04-15T01:08:42.912Z,97915.41
2018-04-15T01:11:09.152Z,97909.17
2018-04-15T01:13:35.410Z,97909.66
2018-04-15T01:16:01.703Z,97907.52
2018-04-15T01:18:27.953Z,97903.85
2018-04-15T01:20:54.202Z,97906.13
2018-04-15T01:23:20.487Z,97896.66
2018-04-15T01:25:46.797Z,97901.11
2018-04-15T01:28:13.064Z,97896.80
2018-04-15T01:30:39.371Z,97891.91
2018-04-15T01:33:05.652Z,97893.69
2018-04-15T01:35:31.917Z,97892.77
2018-04-15T01:37:58.208Z,97886.66
2018-04-15T01:40:24.467Z,97881.58
2018-04-15T01:42:50.728Z,97873.72
2018-04-15T01:45:17.015Z,97868.77
2018-04-15T01:47:43.304Z,97865.59
2018-04-15T01:50:09.558Z,97862.87
2018-04-15T01:52:35.929Z,97858.83
2018-04-15T01:55:02.212Z,97860.94
2018-04-15T01:57:28.589Z,97854.13
2018-04-15T01:59:54.890Z,97857.24
2018-04-15T02:02:21.156Z,97851.19
2018-04-15T02:04:47.407Z,97846.97
2018-04-15T02:07:13.679Z,97854.38
2018-04-15T02:09:39.926Z,97858.69
2018-04-15T02:12:06.189Z,97858.47
2018-04-15T02:14:32.490Z,97861.71
2018-04-15T02:16:58.759Z,97860.84
2018-04-15T02:19:25.068Z,97859.55
2018-04-15T02:21:51.363Z,97849.83
2018-04-15T02:24:17.610Z,97851.81
2018-04-15T02:26:43.878Z,97844.81
2018-04-15T02:29:10.371Z,97845.73
2018-04-15T02:31:36.632Z,97847.59
2018-04-15T02:34:02.925Z,97842.28
2018-04-15T02:36:29.231Z,97842.59
2018-04-15T02:38:55.531Z,97840.32
2018-04-15T02:41:21.822Z,97838.78
2018-04-15T02:43:48.140Z,97834.64
2018-04-15T02:46:14.427Z,97826.64
2018-04-15T02:48:40.723Z,97821.69
2018-04-15T02:51:07.334Z,97820.44
2018-04-15T02:53:33.586Z,97821.44
2018-04-15T02:55:59.880Z,97815.14
2018-04-15T02:58:26.207Z,97804.51
2018-04-15T03:00:52.492Z,97801.30
2018-04-15T03:03:18.747Z,97805.25
2018-04-15T03:05:45.122Z,97803.95
2018-04-15T03:08:11.393Z,97806.16
2018-04-15T03:10:37.719Z,97804.69
2018-04-15T03:13:03.996Z,97816.59
2018-04-15T03:15:30.292Z,97815.57
2018-04-15T03:17:56.552Z,97814.88
2018-04-15T03:20:22.836Z,97813.59
2018-04-15T03:22:49.107Z,97809.41
2018-04-15T03:25:15.364Z,97812.80
2018-04-15T03:27:41.664Z,97815.97
2018-04-15T03:30:07.917Z,97807.97
2018-04-15T03:32:34.191Z,97809.04
2018-04-15T03:35:00.483Z,97797.30
2018-04-15T03:37:26.730Z,97794.84
2018-04-15T03:39:53.250Z,97796.63
2018-04-15T03:42:19.534Z,97793.23
2018-04-15T03:44:45.796Z,97785.53
2018-04-15T03:47:12.071Z,97791.08
2018-04-15T03:49:38.358Z,97797.25
2018-04-15T03:52:04.620Z,97800.62
2018-04-15T03:54:30.900Z,97803.77
2018-04-15T03:56:57.219Z,97800.23
2018-04-15T03:59:23.487Z,97810.95
2018-04-15T04:01:49.791Z,97804.80
2018-04-15T04:04:16.076Z,97807.17
2018-04-15T04:06:42.329Z,97814.20
2018-04-15T04:09:08.589Z,97818.98
2018-04-15T04:11:34.883Z,97821.37
2018-04-15T04:14:01.144Z,97815.06
2018-04-15T04:16:27.400Z,97815.27
2018-04-15T04:19:05.778Z,97822.98
2018-04-15T04:21:44.095Z,97816.31
2018-04-15T04:24:22.499Z,97818.97
2018-04-15T04:26:48.753Z,97806.45
2018-04-15T04:29:15.033Z,97804.83
2018-04-15T04:31:41.315Z,97810.14
2018-04-15T04:34:07.567Z,97806.69
2018-04-15T04:36:33.821Z,97808.40
2018-04-15T04:39:00.318Z,97811.97
2018-04-15T04:41:26.561Z,97809.40
2018-04-15T04:43:52.799Z,97804.79
2018-04-15T04:46:19.091Z,97804.19
2018-04-15T04:48:45.347Z,97804.96
2018-04-15T04:51:11.606Z,97800.17
2018-04-15T04:53:37.895Z,97796.72
2018-04-15T04:56:04.150Z,97787.14
2018-04-15T04:58:30.420Z,97780.02
2018-04-15T05:00:56.712Z,97783.37
2018-04-15T05:03:22.975Z,97777.95
2018-04-15T05:05:49.259Z,97774.38
2018-04-15T05:08:15.540Z,97768.42
2018-04-15T05:10:41.784Z,97775.53
2018-04-15T05:13:08.044Z,97768.16
2018-04-15T05:15:34.331Z,97768.42
2018-04-15T05:18:00.615Z,97762.98
2018-04-15T05:20:26.959Z,97760.67
2018-04-15T05:22:53.297Z,97757.47
2018-04-15T05:25:19.595Z,97755.05
2018-04-15T05:27:45.838Z,97746.72
2018-04-15T05:30:12.434Z,97746.23
2018-04-15T05:32:38.754Z,97742.31
2018-04-15T05:35:05.055Z,97731.31
2018-04-15T05:37:31.366Z,97733.83
2018-04-15T05:39:57.613Z,97723.43
2018-04-15T05:42:23.860Z,97720.71
2018-04-15T05:44:50.155Z,97718.34
2018-04-15T05:47:16.391Z,97707.41
2018-04-15T05:49:42.642Z,97692.74
2018-04-15T05:52:08.932Z,97691.51
2018-04-15T05:54:35.195Z,97678.28
2018-04-15T05:57:01.471Z,97671.39
2018-04-15T05:59:27.846Z,97662.81
2018-04-15T06:01:54.112Z,97667.58
2018-04-15T06:04:20.362Z,97658.59
2018-04-15T06:06:46.677Z,97649.06
2018-04-15T06:09:12.944Z,97643.48
2018-04-15T06:11:39.223Z,97647.27
2018-04-15T06:14:05.507Z,97638.61
2018-04-15T06:16:32.135Z,97632.10
2018-04-15T06:18:58.379Z,97628.54
2018-04-15T06:21:24.723Z,97627.20
2018-04-15T06:23:50.987Z,97622.09
2018-04-15T06:26:17.239Z,97625.05
2018-04-15T06:28:43.548Z,97625.24
2018-04-15T06:31:09.820Z,97634.52
2018-04-15T06:33:36.115Z,97637.51
2018-04-15T06:36:02.398Z,97653.01
2018-04-15T06:38:28.676Z,97655.63
2018-04-15T06:40:54.919Z,97652.83
2018-04-15T06:43:21.204Z,97652.67
2018-04-15T06:45:47.451Z,97649.84
2018-04-15T06:48:13.732Z,97650.41
2018-04-15T06:50:40.022Z,97644.95
2018-04-15T06:53:06.274Z,97639.71
2018-04-15T06:55:32.592Z,97635.63
2018-04-15T06:57:58.904Z,97633.47
2018-04-15T07:00:25.192Z,97636.19
2018-04-15T07:02:51.446Z,97638.74
2018-04-15T07:05:17.743Z,97634.34
2018-04-15T07:07:44.032Z,97626.14
2018-04-15T07:10:10.271Z,97622.02
2018-04-15T07:12:36.580Z,97621.16
2018-04-15T07:15:03.036Z,97628.09
2018-04-15T07:17:29.716Z,97620.03
2018-04-15T07:19:56.043Z,97608.83
2018-04-15T07:22:22.355Z,97603.71
2018-04-15T07:24:48.636Z,97605.29
2018-04-15T07:27:14.966Z,97601.24
2018-04-15T07:29:41.211Z,97596.23
2018-04-15T07:32:07.453Z,97584.61
2018-04-15T07:34:33.739Z,97583.84
2018-04-15T07:37:00.010Z,97581.53
2018-04-15T07:39:26.272Z,97577.52
2018-04-15T07:41:52.602Z,97576.67
2018-04-15T07:44:18.880Z,97574.70
2018-04-15T07:46:45.138Z,97576.80
2018-04-15T07:49:11.419Z,97574.49
2018-04-15T07:51:37.697Z,97571.83
2018-04-15T07:54:10.871Z,97575.41
2018-04-15T07:56:37.136Z,97571.91
2018-04-15T07:59:03.383Z,97566.88
2018-04-15T08:01:29.719Z,97572.44
2018-04-15T08:03:55.966Z,97569.92
2018-04-15T08:06:22.235Z,97567.23
2018-04-15T08:08:48.529Z,97563.99
2018-04-15T08:11:14.775Z,97564.95
2018-04-15T08:13:41.056Z,97566.75
2018-04-15T08:16:07.414Z,97567.58
2018-04-15T08:18:33.659Z,97572.75
2018-04-15T08:20:59.987Z,97570.84
2018-04-15T08:23:26.271Z,97568.13
2018-04-15T08:25:52.633Z,97580.02
2018-04-15T08:28:18.869Z,97579.45
2018-04-15T08:30:45.168Z,97575.77
2018-04-15T08:33:11.424Z,97563.84
2018-04-15T08:35:37.696Z,97574.58
2018-04-15T08:38:04.204Z,97573.59
2018-04-15T08:40:30.490Z,97561.23
2018-04-15T08:42:57.291Z,97549.33
2018-04-15T08:45:23.562Z,97546.39
2018-04-15T08:47:49.849Z,97540.11
2018-04-15T08:50:16.109Z,97542.86
2018-04-15T08:52:42.395Z,97544.02
2018-04-15T08:55:08.648Z,97545.67
2018-04-15T08:57:34.889Z,97552.41
2018-04-15T09:00:01.172Z,97544.87
2018-04-15T09:02:27.418Z,97545.69
2018-04-15T09:04:53.834Z,97537.10
2018-04-15T09:07:20.111Z,97538.22
2018-04-15T09:09:46.417Z,97532.52
2018-04-15T09:12:12.669Z,97533.70
2018-04-15T09:14:38.931Z,97532.23
2018-04-15T09:17:05.167Z,97520.67
2018-04-15T09:19:31.443Z,97520.27
2018-04-15T09:21:57.718Z,97524.33
2018-04-15T09:24:23.962Z,97522.17
2018-04-15T09:26:50.190Z,97519.52
2018-04-15T09:29:16.494Z,97516.55
2018-04-15T09:31:42.800Z,97509.39
2018-04-15T09:34:09.099Z,97513.29
2018-04-15T09:36:35.373Z,97518.73
2018-04-15T09:39:01.619Z,97516.41
2018-04-15T09:41:27.883Z,97512.17
2018-04-15T09:43:54.427Z,97509.33
2018-04-15T09:46:21.889Z,97508.97
2018-04-15T09:48:48.148Z,97505.48
2018-04-15T09:51:14.531Z,97509.34
2018-04-15T09:53:40.770Z,97504.08
2018-04-15T09:56:07.010Z,97502.55
2018-04-15T09:58:33.289Z,97506.88
2018-04-15T10:01:02.496Z,97499.89
2018-04-15T10:03:28.788Z,97496.15
2018-04-15T10:05:55.066Z,97503.20
2018-04-15T10:08:21.300Z,97499.41
2018-04-15T10:10:47.564Z,97502.05
2018-04-15T10:13:13.878Z,97492.00
2018-04-15T10:15:40.130Z,97492.11
2018-04-15T10:18:06.391Z,97490.81
2018-04-15T10:20:32.923Z,97487.84
2018-04-15T10:22:59.212Z,97489.33
2018-04-15T10:25:25.472Z,97484.72
2018-04-15T10:27:51.807Z,97490.63
2018-04-15T10:30:18.095Z,97484.80
2018-04-15T10:32:44.452Z,97474.61
2018-04-15T10:35:10.743Z,97477.31
2018-04-15T10:37:36.991Z,97474.52
2018-04-15T10:40:03.386Z,97466.88
2018-04-15T10:42:29.680Z,97464.49
2018-04-15T10:44:56.246Z,97466.35
2018-04-15T10:47:22.507Z,97464.17
2018-04-15T10:49:48.923Z,97460.30
2018-04-15T10:52:15.159Z,97456.45
2018-04-15T10:54:41.473Z,97463.22
2018-04-15T10:57:07.723Z,97462.44
2018-04-15T10:59:34.470Z,97451.16
2018-04-15T11:02:00.726Z,97454.78
2018-04-15T11:04:27.076Z,97453.52
2018-04-15T11:06:53.359Z,97452.36
2018-04-15T11:09:19.620Z,97455.39
2018-04-15T11:11:45.894Z,97457.20
2018-04-15T11:14:12.260Z,97452.63
2018-04-15T11:16:38.497Z,97448.86
2018-04-15T11:19:04.791Z,97446.30
2018-04-15T11:21:31.067Z,97448.41
2018-04-15T11:23:57.369Z,97450.89
2018-04-15T11:26:23.650Z,97449.64
2018-04-15T11:28:49.908Z,97452.70
2018-04-15T11:31:16.259Z,97448.71
2018-04-15T11:33:42.527Z,97448.70
2018-04-15T11:36:08.803Z,97455.01
2018-04-15T11:38:35.039Z,97447.63
2018-04-15T11:41:01.296Z,97441.36
2018-04-15T11:43:27.555Z,97436.29
2018-04-15T11:45:53.818Z,97437.92
2018-04-15T11:48:20.119Z,97439.52
2018-04-15T11:50:46.379Z,97433.70
2018-04-15T11:53:12.617Z,97434.23
2018-04-15T11:55:38.942Z,97428.38
2018-04-15T11:58:05.194Z,97426.55
2018-04-15T12:00:31.419Z,97421.77
2018-04-15T12:02:57.682Z,97417.50
2018-04-15T12:05:23.967Z,97406.08
2018-04-15T12:07:50.207Z,97402.52
2018-04-15T12:10:16.522Z,97398.00
2018-04-15T12:12:42.767Z,97399.63
2018-04-15T12:15:09.015Z,97402.84
2018-04-15T12:17:35.278Z,97410.64
2018-04-15T12:20:01.539Z,97400.94
2018-04-15T12:22:27.775Z,97394.72
2018-04-15T12:24:54.075Z,97390.36
2018-04-15T12:27:20.337Z,97386.70
2018-04-15T12:29:46.583Z,97387.05
2018-04-15T12:32:12.866Z,97385.41
2018-04-15T12:34:39.137Z,97382.05
2018-04-15T12:37:05.475Z,97377.54
2018-04-15T12:39:31.744Z,97376.70
2018-04-15T12:41:57.980Z,97374.17
2018-04-15T12:44:24.239Z,97367.44
2018-04-15T12:46:50.560Z,97369.19
2018-04-15T12:49:16.802Z,97358.26
2018-04-15T12:51:43.033Z,97350.63
2018-04-15T12:54:09.302Z,97351.20
2018-04-15T12:56:35.530Z,97347.41
2018-04-15T12:59:01.775Z,97344.36
2018-04-15T13:01:28.095Z,97360.28
2018-04-15T13:03:54.374Z,97343.16
2018-04-15T13:06:20.607Z,97343.30
2018-04-15T13:08:46.888Z,97337.34
2018-04-15T13:11:13.122Z,97326.88
2018-04-15T13:13:39.366Z,97333.95
2018-04-15T13:16:05.643Z,97334.88
2018-04-15T13:18:31.882Z,97333.78
2018-04-15T13:20:58.119Z,97328.11
2018-04-15T13:23:24.399Z,97329.12
2018-04-15T13:25:50.725Z,97320.74
2018-04-15T13:28:16.962Z,97332.97
2018-04-15T13:30:43.256Z,97326.45
2018-04-15T13:33:09.518Z,97321.40
2018-04-15T13:35:35.784Z,97320.27
2018-04-15T13:38:02.059Z,97317.52
2018-04-15T13:40:28.321Z,97312.92
2018-04-15T13:42:54.558Z,97304.20
2018-04-15T13:45:20.834Z,97307.84
2018-04-15T13:47:47.076Z,97309.61
2018-04-15T13:50:13.319Z,97298.66
2018-04-15T13:52:39.607Z,97303.34
2018-04-15T13:55:05.855Z,97305.48
2018-04-15T13:57:32.224Z,97299.80
2018-04-15T13:59:58.508Z,97291.95
2018-04-15T14:02:24.743Z,97287.73
2018-04-15T14:04:50.984Z,97288.98
2018-04-15T14:07:17.272Z,97287.67
2018-04-15T14:09:43.515Z,97292.35
2018-04-15T14:12:09.775Z,97286.47
2018-04-15T14:14:36.037Z,97289.88
2018-04-15T14:17:02.280Z,97290.67
2018-04-15T14:19:28.530Z,97287.34
2018-04-15T14:21:54.860Z,97280.00
2018-04-15T14:24:21.092Z,97281.47
2018-04-15T14:26:47.344Z,97275.51
2018-04-15T14:29:13.620Z,97278.66
2018-04-15T14:31:39.855Z,97274.89
2018-04-15T14:34:06.111Z,97268.67
2018-04-15T14:36:32.411Z,97265.20
2018-04-15T14:38:58.693Z,97261.45
2018-04-15T14:41:24.999Z,97259.91
2018-04-15T14:43:51.271Z,97258.46
2018-04-15T14:46:17.531Z,97250.64
2018-04-15T14:48:43.776Z,97249.17
2018-04-15T14:51:10.043Z,97243.64
2018-04-15T14:53:36.283Z,97244.47
2018-04-15T14:56:02.548Z,97252.02
2018-04-15T14:58:28.927Z,97253.98
2018-04-15T15:00:55.172Z,97244.63
2018-04-15T15:03:21.455Z,97253.37
2018-04-15T15:05:47.795Z,97244.95
2018-04-15T15:08:14.039Z,97241.09
2018-04-15T15:10:40.459Z,97244.34
2018-04-15T15:13:06.724Z,97243.63
2018-04-15T15:15:32.974Z,97243.53
2018-04-15T15:17:59.247Z,97243.92
2018-04-15T15:20:25.522Z,97249.70
2018-04-15T15:22:51.757Z,97242.36
2018-04-15T15:25:17.987Z,97240.23
2018-04-15T15:27:44.295Z,97240.34
2018-04-15T15:30:10.538Z,97242.00
2018-04-15T15:32:36.842Z,97244.97
2018-04-15T15:35:03.137Z,97239.34
2018-04-15T15:37:29.379Z,97240.97
2018-04-15T15:39:55.617Z,97244.52
2018-04-15T15:42:21.889Z,97248.35
2018-04-15T15:44:48.230Z,97244.24
2018-04-15T15:47:14.471Z,97255.73
2018-04-15T15:49:40.768Z,97254.98
2018-04-15T15:52:07.015Z,97259.59
2018-04-15T15:54:33.499Z,97259.28
2018-04-15T15:56:59.781Z,97252.59
2018-04-15T15:59:26.096Z,97256.38
2018-04-15T16:01:52.336Z,97255.47
2018-04-15T16:04:18.624Z,97264.37
2018-04-15T16:06:44.926Z,97257.11
2018-04-15T16:09:11.166Z,97264.77
2018-04-15T16:11:37.458Z,97263.98
2018-04-15T16:14:03.731Z,97262.22
2018-04-15T16:16:30.032Z,97260.99
2018-04-15T16:18:56.331Z,97261.02
2018-04-15T16:21:22.591Z,97254.81
2018-04-15T16:23:48.998Z,97256.80
2018-04-15T16:26:15.282Z,97253.82
2018-04-15T16:28:41.550Z,97239.61
2018-04-15T16:31:07.929Z,97234.23
2018-04-15T16:33:34.210Z,97227.45
2018-04-15T16:36:00.527Z,97213.69
2018-04-15T16:38:26.774Z,97204.87
2018-04-15T16:40:53.104Z,97212.05
2018-04-15T16:43:19.383Z,97211.09
2018-04-15T16:45:45.628Z,97211.70
2018-04-15T16:48:11.910Z,97224.34
2018-04-15T16:50:38.163Z,97230.61
2018-04-15T16:53:04.531Z,97221.58
2018-04-15T16:55:30.883Z,97221.42
2018-04-15T16:57:57.126Z,97223.30
2018-04-15T17:00:23.420Z,97220.60
2018-04-15T17:02:49.695Z,97219.44
2018-04-15T17:05:15.949Z,97225.94
2018-04-15T17:07:42.183Z,97225.21
2018-04-15T17:10:09.447Z,97226.77
2018-04-15T17:12:35.698Z,97230.65
2018-04-15T17:15:01.984Z,97223.70
2018-04-15T17:17:28.295Z,97225.95
2018-04-15T17:19:54.742Z,97220.91
2018-04-15T17:22:21.004Z,97226.28
2018-04-15T17:24:47.322Z,97220.48
2018-04-15T17:27:13.600Z,97228.67
2018-04-15T17:29:39.844Z,97227.66
2018-04-15T17:32:06.127Z,97227.02
2018-04-15T17:34:32.393Z,97227.28
2018-04-15T17:36:58.638Z,97233.20
2018-04-15T17:39:24.961Z,97236.58
2018-04-15T17:41:51.242Z,97243.72
2018-04-15T17:44:17.497Z,97239.69
2018-04-15T17:46:43.799Z,97245.59
2018-04-15T17:49:10.036Z,97254.34
2018-04-15T17:51:36.278Z,97253.58
2018-04-15T17:54:02.593Z,97255.55
2018-04-15T17:56:28.850Z,97255.34
2018-04-15T17:58:55.134Z,97257.01
2018-04-15T18:01:21.423Z,97258.88
2018-04-15T18:03:47.674Z,97262.06
2018-04-15T18:06:13.917Z,97260.22
2018-04-15T18:08:40.187Z,97260.11
2018-04-15T18:11:06.427Z,97264.99
2018-04-15T18:13:32.675Z,97259.88
2018-04-15T18:15:58.960Z,97273.19
2018-04-15T18:18:25.211Z,97276.62
2018-04-15T18:20:51.479Z,97279.64
2018-04-15T18:23:17.765Z,97275.86
2018-04-15T18:25:44.023Z,97278.02
2018-04-15T18:28:10.342Z,97280.72
2018-04-15T18:30:36.637Z,97286.83
2018-04-15T18:33:02.901Z,97294.17
2018-04-15T18:35:29.134Z,97296.88
2018-04-15T18:37:55.495Z,97292.18
2018-04-15T18:40:21.775Z,97294.38
2018-04-15T18:42:48.029Z,97298.75
2018-04-15T18:45:14.310Z,97300.19
2018-04-15T18:47:40.587Z,97296.61
2018-04-15T18:50:06.884Z,97295.94
2018-04-15T18:52:33.158Z,97295.88
2018-04-15T18:54:59.479Z,97293.86
2018-04-15T18:57:25.734Z,97288.37
2018-04-15T18:59:52.036Z,97289.98
2018-04-15T19:02:18.283Z,97295.77
2018-04-15T19:04:44.570Z,97287.59
2018-04-15T19:07:10.843Z,97295.41
2018-04-15T19:09:37.088Z,97299.41
2018-04-15T19:12:03.330Z,97295.28
2018-04-15T19:14:29.617Z,97286.50
2018-04-15T19:16:55.899Z,97280.64
2018-04-15T19:19:22.180Z,97277.15
2018-04-15T19:21:48.601Z,97278.20
2018-04-15T19:24:14.848Z,97280.69
2018-04-15T19:26:41.123Z,97277.03
2018-04-15T19:29:07.403Z,97274.80
2018-04-15T19:31:33.645Z,97288.13
2018-04-15T19:33:59.880Z,97295.12
2018-04-15T19:36:26.188Z,97294.87
2018-04-15T19:38:52.439Z,97296.02
2018-04-15T19:41:18.706Z,97293.16
2018-04-15T19:43:45.040Z,97304.30
2018-04-15T19:46:11.339Z,97305.52
2018-04-15T19:48:37.735Z,97303.66
2018-04-15T19:51:04.077Z,97298.62
2018-04-15T19:53:30.311Z,97296.03
2018-04-15T19:55:56.604Z,97289.44
2018-04-15T19:58:22.883Z,97292.09
2018-04-15T20:00:49.134Z,97286.59
2018-04-15T20:03:15.366Z,97295.12
2018-04-15T20:05:41.657Z,97278.94
2018-04-15T20:08:07.902Z,97278.47
2018-04-15T20:10:34.158Z,97272.14
2018-04-15T20:13:00.444Z,97271.61
2018-04-15T20:15:26.678Z,97262.05
2018-04-15T20:17:53.019Z,97269.33
2018-04-15T20:20:19.299Z,97265.58
2018-04-15T20:22:45.540Z,97257.63
2018-04-15T20:25:11.782Z,97264.44
2018-04-15T20:27:38.047Z,97265.34
2018-04-15T20:30:04.316Z,97258.00
2018-04-15T20:32:30.580Z,97263.95
2018-04-15T20:34:57.021Z,97260.70
2018-04-15T20:37:23.467Z,97259.63
2018-04-15T20:39:49.751Z,97263.30
2018-04-15T20:42:16.022Z,97261.98
2018-04-15T20:44:42.307Z,97254.06
2018-04-15T20:47:08.566Z,97252.73
2018-04-15T20:49:34.864Z,97252.73
2018-04-15T20:52:01.110Z,97256.72
2018-04-15T20:54:27.370Z,97245.12
2018-04-15T20:56:53.699Z,97243.88
2018-04-15T20:59:19.930Z,97250.13
2018-04-15T21:01:46.187Z,97245.50
2018-04-15T21:04:12.471Z,97245.98
2018-04-15T21:06:38.897Z,97258.53
2018-04-15T21:09:06.972Z,97255.27
2018-04-15T21:11:33.288Z,97265.39
2018-04-15T21:13:59.552Z,97262.80
2018-04-15T21:16:25.792Z,97271.70
2018-04-15T21:18:52.060Z,97272.50
2018-04-15T21:21:18.541Z,97266.31
2018-04-15T21:23:44.800Z,97261.35
2018-04-15T21:26:11.091Z,97268.36
2018-04-15T21:28:37.331Z,97267.80
2018-04-15T21:31:03.568Z,97270.61
2018-04-15T21:33:29.851Z,97270.19
2018-04-15T21:35:56.099Z,97264.35
2018-04-15T21:38:22.424Z,97265.37
2018-04-15T21:40:48.722Z,97262.19
2018-04-15T21:43:15.088Z,97251.38
2018-04-15T21:45:41.365Z,97258.66
2018-04-15T21:48:07.671Z,97259.97
2018-04-15T21:50:34.000Z,97270.34
2018-04-15T21:53:00.300Z,97275.25
2018-04-15T21:55:26.576Z,97270.71
2018-04-15T21:57:52.833Z,97265.56
2018-04-15T22:00:19.108Z,97269.77
2018-04-15T22:02:45.423Z,97259.09
2018-04-15T22:05:11.690Z,97269.44
2018-04-15T22:07:37.922Z,97273.42
2018-04-15T22:10:04.198Z,97276.81
2018-04-15T22:12:30.431Z,97263.40
2018-04-15T22:14:56.680Z,97262.87
2018-04-15T22:17:22.966Z,97269.79
2018-04-15T22:19:49.215Z,97276.23
2018-04-15T22:22:15.462Z,97274.24
2018-04-15T22:24:41.799Z,97283.70
2018-04-15T22:27:08.083Z,97283.52
2018-04-15T22:29:34.335Z,97272.22
2018-04-15T22:32:00.610Z,97269.73
2018-04-15T22:34:26.858Z,97272.36
2018-04-15T22:36:53.120Z,97275.80
2018-04-15T22:39:19.392Z,97259.77
2018-04-15T22:41:45.629Z,97252.06
2018-04-15T22:44:11.895Z,97243.45
2018-04-15T22:46:38.171Z,97238.23
2018-04-15T22:49:10.546Z,97232.78
2018-04-15T22:51:36.828Z,97230.19
2018-04-15T22:54:03.112Z,97222.18
2018-04-15T22:56:35.255Z,97220.70
2018-04-15T22:59:01.498Z,97227.55
2018-04-15T23:01:27.797Z,97222.67
2018-04-15T23:03:54.042Z,97225.73
2018-04-15T23:06:20.307Z,97225.24
2018-04-15T23:08:46.586Z,97232.79
2018-04-15T23:11:12.820Z,97225.60
2018-04-15T23:13:39.051Z,97222.85
2018-04-15T23:16:05.355Z,97220.64
2018-04-15T23:18:31.658Z,97229.71
2018-04-15T23:20:57.901Z,97234.08
2018-04-15T23:23:25.155Z,97230.66
2018-04-15T23:25:51.399Z,97216.42
2018-04-15T23:28:17.631Z,97220.27
2018-04-15T23:30:43.926Z,97217.34
2018-04-15T23:33:10.163Z,97217.79
2018-04-15T23:35:36.415Z,97225.06
2018-04-15T23:38:02.699Z,97216.02
2018-04-15T23:40:28.935Z,97210.13
2018-04-15T23:42:55.200Z,97217.50
2018-04-15T23:45:21.466Z,97214.70
2018-04-15T23:47:47.711Z,97212.05
2018-04-15T23:50:13.984Z,97204.58
2018-04-15T23:52:40.263Z,97205.39
2018-04-15T23:55:06.531Z,97197.72
2018-04-15T23:57:32.876Z,97200.52
2018-04-15T23:59:59.176Z,97190.98
